Time;durP1;ratioP1;P1;durP2;ratioP2;P2;SDS_P1;SDS_P2;PMS_P1;PMS_P2;Temp;Humidity;BMP_temperature;BMP_pressure;BME280_temperature;BME280_humidity;BME280_pressure;Samples;Min_cycle;Max_cycle;Signal;HPM_P1;HPM_P2
2023/05/16 00:00:13;;;;;;;;;3.50;1.75;;;;;13.21;53.55;101539.53;5021558;28;45519;-68
2023/05/16 00:02:39;;;;;;;;;6.75;4.50;;;;;13.21;53.34;101557.16;5025018;28;45525;-68
2023/05/16 00:05:06;;;;;;;;;7.50;5.75;;;;;13.20;53.39;101553.63;5022268;28;45429;-68
2023/05/16 00:07:32;;;;;;;;;9.25;6.00;;;;;13.15;53.26;101556.31;5019426;28;45315;-68
2023/05/16 00:09:58;;;;;;;;;6.75;4.50;;;;;13.13;53.41;101549.31;5019565;28;45320;-68
2023/05/16 00:12:23;;;;;;;;;7.25;7.00;;;;;13.11;53.71;101551.13;5019719;28;45237;-68
2023/05/16 00:14:50;;;;;;;;;8.75;5.50;;;;;13.09;53.44;101556.38;5019225;28;46298;-68
2023/05/16 00:17:19;;;;;;;;;6.25;5.75;;;;;13.07;53.48;101552.00;5018481;28;45361;-68
2023/05/16 00:19:47;;;;;;;;;5.00;4.50;;;;;13.04;53.30;101550.28;5019535;28;45423;-68
2023/05/16 00:22:14;;;;;;;;;7.25;5.50;;;;;12.98;53.71;101547.72;5018011;28;45481;-68
2023/05/16 00:24:39;;;;;;;;;7.25;6.00;;;;;13.01;53.53;101552.97;5019064;28;45578;-68
2023/05/16 00:27:05;;;;;;;;;6.50;5.00;;;;;12.97;53.44;101552.13;5018118;28;45850;-68
2023/05/16 00:29:31;;;;;;;;;8.50;7.50;;;;;12.95;53.43;101559.19;5019526;28;45399;-68
2023/05/16 00:31:56;;;;;;;;;6.00;5.25;;;;;12.94;53.39;101553.94;5019554;28;45500;-69
2023/05/16 00:34:21;;;;;;;;;8.50;6.00;;;;;12.86;53.80;101546.09;5019170;28;45399;-68
2023/05/16 00:36:49;;;;;;;;;6.50;6.50;;;;;12.89;53.29;101548.69;5019211;28;45344;-68
2023/05/16 00:39:14;;;;;;;;;7.75;6.00;;;;;12.85;53.48;101547.00;5019410;28;45426;-68
2023/05/16 00:41:40;;;;;;;;;6.50;4.00;;;;;12.82;53.64;101545.25;5019149;28;45378;-68
2023/05/16 00:44:05;;;;;;;;;4.00;3.75;;;;;12.81;53.59;101551.41;5019124;28;46196;-68
2023/05/16 00:46:31;;;;;;;;;7.00;5.00;;;;;12.77;53.39;101549.72;5019193;28;45445;-69
2023/05/16 00:48:57;;;;;;;;;6.00;5.50;;;;;12.77;53.47;101543.56;5019310;28;45212;-68
2023/05/16 00:51:22;;;;;;;;;6.00;3.50;;;;;12.77;53.29;101551.50;5019038;28;45214;-68
2023/05/16 00:53:48;;;;;;;;;5.50;5.00;;;;;12.75;53.42;101550.63;5017743;28;48584;-68
2023/05/16 00:56:13;;;;;;;;;9.75;5.25;;;;;12.67;53.63;101542.78;5010947;28;45256;-68
2023/05/16 00:58:39;;;;;;;;;4.00;4.00;;;;;12.70;53.64;101547.16;5020187;28;45253;-68
2023/05/16 01:01:04;;;;;;;;;7.00;6.25;;;;;12.69;53.41;101562.09;5023511;28;45219;-68
2023/05/16 01:03:30;;;;;;;;;8.25;6.50;;;;;12.68;53.39;101560.38;5021428;28;46899;-68
2023/05/16 01:05:56;;;;;;;;;5.25;5.25;;;;;12.65;53.64;101547.19;5022152;28;45367;-68
2023/05/16 01:08:23;;;;;;;;;7.25;5.00;;;;;12.62;53.90;101542.81;5022538;28;45449;-68
2023/05/16 01:10:48;;;;;;;;;7.75;4.50;;;;;12.62;53.47;101544.59;5022135;28;45681;-68
2023/05/16 01:13:46;;;;;;;;;8.00;5.00;;;;;12.58;53.50;101549.03;5021842;28;45346;-68
2023/05/16 01:16:18;;;;;;;;;7.75;5.50;;;;;12.52;53.59;101539.41;5022234;28;45308;-68
2023/05/16 01:19:02;;;;;;;;;8.25;4.50;;;;;12.53;53.66;101542.94;5020945;28;45345;-68
2023/05/16 01:21:51;;;;;;;;;8.75;3.50;;;;;12.52;53.58;101544.66;5021835;28;45269;-68
2023/05/16 01:24:36;;;;;;;;;5.00;5.00;;;;;12.48;53.69;101542.09;5020571;28;47112;-68
2023/05/16 01:27:04;;;;;;;;;9.00;3.00;;;;;12.45;53.69;101548.28;5020530;28;45473;-68
2023/05/16 01:29:29;;;;;;;;;3.50;3.25;;;;;12.41;53.46;101546.53;5020726;28;45338;-68
2023/05/16 01:31:55;;;;;;;;;7.50;5.00;;;;;12.42;53.38;101555.34;5020756;28;45239;-68
2023/05/16 01:34:20;;;;;;;;;4.75;3.00;;;;;12.41;53.57;101557.09;5020474;28;47523;-68
2023/05/16 01:37:06;;;;;;;;;4.50;4.50;;;;;12.39;53.62;101552.72;5021779;28;45471;-68
2023/05/16 01:39:46;;;;;;;;;4.75;3.75;;;;;12.37;53.60;101557.13;5011406;28;45360;-68
2023/05/16 01:42:16;;;;;;;;;6.75;5.25;;;;;12.31;53.66;101550.16;5021755;28;45341;-68
2023/05/16 01:45:01;;;;;;;;;5.00;4.00;;;;;12.33;53.53;101558.94;5020458;28;47293;-68
2023/05/16 01:47:30;;;;;;;;;10.25;4.75;;;;;12.28;53.68;101550.19;5009687;28;45349;-68
2023/05/16 01:50:16;;;;;;;;;6.25;4.00;;;;;12.29;53.45;101571.25;5021821;28;45240;-68
2023/05/16 01:52:46;;;;;;;;;4.00;4.00;;;;;12.23;53.41;101568.66;5020074;28;45501;-68
2023/05/16 01:55:17;;;;;;;;;5.25;4.00;;;;;12.24;53.59;101566.88;5018958;28;46548;-68
2023/05/16 01:57:44;;;;;;;;;7.75;5.75;;;;;12.24;53.57;101567.78;5026840;28;45368;-68
2023/05/16 02:00:11;;;;;;;;;5.00;3.50;;;;;12.20;53.61;101558.16;5020347;28;45322;-68
2023/05/16 02:02:36;;;;;;;;;6.75;5.75;;;;;12.17;53.78;101564.28;5026353;28;45541;-68
2023/05/16 02:05:01;;;;;;;;;8.00;5.75;;;;;12.15;53.68;101560.81;5024543;28;45395;-68
2023/05/16 02:07:27;;;;;;;;;6.25;5.25;;;;;12.12;53.52;101563.47;5020552;28;45363;-68
2023/05/16 02:09:52;;;;;;;;;6.25;3.00;;;;;12.10;53.58;101559.09;5021408;28;45229;-68
2023/05/16 02:12:18;;;;;;;;;4.00;3.00;;;;;12.10;53.60;101573.16;5019982;28;45527;-68
2023/05/16 02:14:43;;;;;;;;;4.75;3.50;;;;;12.08;53.62;101563.53;5020786;28;46083;-68
2023/05/16 02:17:08;;;;;;;;;6.75;4.50;;;;;12.03;53.61;101574.06;5021518;28;45495;-68
2023/05/16 02:19:34;;;;;;;;;4.25;3.00;;;;;12.00;53.60;101569.72;5020033;28;45604;-68
2023/05/16 02:21:59;;;;;;;;;6.00;4.00;;;;;11.99;53.45;101565.31;5019823;28;45380;-68
2023/05/16 02:24:24;;;;;;;;;6.00;3.75;;;;;11.97;53.68;101568.84;5021092;28;46110;-68
2023/05/16 02:26:50;;;;;;;;;5.00;3.75;;;;;11.92;53.66;101563.56;5019740;28;45404;-68
2023/05/16 02:29:15;;;;;;;;;8.25;4.00;;;;;11.93;53.63;101573.22;5021436;28;45504;-68
2023/05/16 02:31:41;;;;;;;;;10.75;3.75;;;;;11.90;53.64;101568.00;5019986;28;45349;-68
2023/05/16 02:34:07;;;;;;;;;5.75;3.75;;;;;11.89;53.33;101574.13;5020912;28;46361;-68
2023/05/16 02:36:34;;;;;;;;;7.00;5.25;;;;;11.86;53.58;101572.41;5020912;28;45416;-68
2023/05/16 02:39:00;;;;;;;;;3.75;3.75;;;;;11.85;53.68;101575.06;5021094;28;45311;-68
2023/05/16 02:41:26;;;;;;;;;8.25;5.50;;;;;11.83;53.73;101576.81;5019570;28;45509;-68
2023/05/16 02:43:51;;;;;;;;;3.50;2.50;;;;;11.80;53.72;101576.84;5019393;28;47461;-68
2023/05/16 02:46:32;;;;;;;;;8.00;5.25;;;;;11.80;53.73;101579.47;5020885;28;45317;-68
2023/05/16 02:48:58;;;;;;;;;5.25;4.00;;;;;11.75;53.60;101586.50;5008027;28;45225;-68
2023/05/16 02:51:26;;;;;;;;;6.00;4.00;;;;;11.76;53.67;101590.88;5020578;28;45254;-68
2023/05/16 02:53:51;;;;;;;;;5.00;5.00;;;;;11.73;53.78;101596.19;5020622;28;45419;-67
2023/05/16 02:56:18;;;;;;;;;6.00;5.25;;;;;11.70;53.61;101592.66;5009134;28;45261;-68
2023/05/16 02:58:47;;;;;;;;;9.75;5.00;;;;;11.60;53.71;101575.19;5018686;28;45426;-68
2023/05/16 03:01:12;;;;;;;;;5.75;3.00;;;;;11.67;53.30;101597.97;5019189;28;45269;-68
2023/05/16 03:03:37;;;;;;;;;5.00;2.25;;;;;11.64;53.80;101602.38;5028283;28;46319;-68
2023/05/16 03:06:03;;;;;;;;;4.50;4.00;;;;;11.63;53.62;101598.84;5020398;28;45313;-68
2023/05/16 03:08:28;;;;;;;;;3.50;2.75;;;;;11.61;53.80;101605.91;5020621;28;45401;-68
2023/05/16 03:10:53;;;;;;;;;5.75;4.00;;;;;11.61;53.80;101602.38;5020549;28;45241;-68
2023/05/16 03:13:19;;;;;;;;;6.25;5.00;;;;;11.59;53.61;101591.00;5018323;28;53834;-68
2023/05/16 03:15:44;;;;;;;;;8.00;5.75;;;;;11.56;53.82;101591.88;5019248;28;45230;-67
2023/05/16 03:18:10;;;;;;;;;3.25;3.25;;;;;11.54;53.51;101591.00;5018119;28;45420;-68
2023/05/16 03:20:36;;;;;;;;;4.50;2.75;;;;;11.49;53.56;101595.41;5018615;28;45752;-68
2023/05/16 03:23:01;;;;;;;;;7.00;5.00;;;;;11.52;53.76;101598.03;5020119;28;45358;-68
2023/05/16 03:25:27;;;;;;;;;4.00;4.00;;;;;11.50;53.86;101597.16;5018905;28;45529;-68
2023/05/16 03:27:52;;;;;;;;;7.50;4.75;;;;;11.50;53.86;101603.28;5020156;28;45458;-68
2023/05/16 03:30:18;;;;;;;;;3.00;3.00;;;;;11.49;53.71;101603.31;5020206;28;45443;-68
2023/05/16 03:32:44;;;;;;;;;4.50;4.00;;;;;11.48;53.94;101607.72;5019864;28;45336;-68
2023/05/16 03:35:10;;;;;;;;;6.50;4.00;;;;;11.48;53.77;101614.72;5020148;28;45391;-68
2023/05/16 03:37:36;;;;;;;;;5.00;5.00;;;;;11.46;53.89;101617.38;5019774;28;45241;-68
2023/05/16 03:40:04;;;;;;;;;4.25;3.00;;;;;11.43;53.74;101621.75;5018642;28;45615;-68
2023/05/16 03:42:30;;;;;;;;;8.75;3.50;;;;;11.44;53.84;101618.25;5019928;28;47077;-68
2023/05/16 03:44:55;;;;;;;;;4.00;3.75;;;;;11.36;53.82;101613.88;5019980;28;45354;-68
2023/05/16 03:47:21;;;;;;;;;7.50;4.00;;;;;11.38;53.75;101624.41;5006980;28;45491;-68
2023/05/16 03:49:46;;;;;;;;;3.00;3.00;;;;;11.39;53.88;101631.41;5018724;28;45486;-68
2023/05/16 03:52:11;;;;;;;;;7.00;5.00;;;;;11.35;53.87;101617.38;5019708;28;48627;-68
2023/05/16 03:54:37;;;;;;;;;5.00;3.50;;;;;11.34;53.80;101622.66;5018441;28;45534;-68
2023/05/16 03:57:02;;;;;;;;;7.50;4.00;;;;;11.36;53.91;101637.56;5004991;28;45428;-68
2023/05/16 03:59:27;;;;;;;;;4.00;4.00;;;;;11.34;53.75;101630.56;5018235;28;45463;-68
2023/05/16 04:01:53;;;;;;;;;5.00;4.00;;;;;11.31;53.95;101635.84;5021090;28;46688;-68
2023/05/16 04:04:18;;;;;;;;;7.50;3.25;;;;;11.32;53.97;101641.09;5028118;28;45311;-68
2023/05/16 04:06:43;;;;;;;;;4.25;3.00;;;;;11.30;53.97;101642.84;5019416;28;45462;-68
2023/05/16 04:09:09;;;;;;;;;7.25;4.25;;;;;11.27;54.00;101634.97;5019897;28;45376;-67
2023/05/16 04:11:35;;;;;;;;;3.50;3.50;;;;;11.28;53.90;101638.47;5018364;28;45620;-67
2023/05/16 04:14:00;;;;;;;;;6.25;4.75;;;;;11.24;53.92;101645.50;5019551;28;45245;-67
2023/05/16 04:16:26;;;;;;;;;7.25;5.50;;;;;11.25;53.94;101649.03;5018315;28;45246;-67
2023/05/16 04:18:51;;;;;;;;;3.50;3.50;;;;;11.22;53.98;101650.75;5019707;28;45258;-68
2023/05/16 04:21:17;;;;;;;;;3.50;2.25;;;;;11.22;53.94;101649.91;5019004;28;47495;-68
2023/05/16 04:23:42;;;;;;;;;2.50;2.00;;;;;11.22;53.91;101655.16;5019642;28;45221;-68
2023/05/16 04:26:08;;;;;;;;;6.50;3.75;;;;;11.17;53.71;101646.38;5019215;28;45163;-68
2023/05/16 04:28:34;;;;;;;;;9.75;8.50;;;;;11.17;53.97;101657.78;5019666;28;45181;-68
2023/05/16 04:30:59;;;;;;;;;6.50;5.50;;;;;11.15;54.09;101646.38;5020653;28;45597;-68
2023/05/16 04:33:25;;;;;;;;;4.25;3.75;;;;;11.15;54.04;101658.69;5022960;28;45210;-68
2023/05/16 04:35:51;;;;;;;;;6.00;3.50;;;;;11.16;54.11;101661.31;5022770;28;45450;-68
2023/05/16 04:38:17;;;;;;;;;4.25;3.00;;;;;11.14;53.82;101662.19;5021652;28;46749;-68
2023/05/16 04:40:42;;;;;;;;;6.50;3.00;;;;;11.12;54.24;101659.56;5022518;28;46029;-68
2023/05/16 04:43:07;;;;;;;;;4.50;3.25;;;;;11.14;54.10;101664.81;5022900;28;45313;-68
2023/05/16 04:45:33;;;;;;;;;8.25;4.75;;;;;11.10;53.95;101669.19;5022847;28;45277;-68
2023/05/16 04:47:59;;;;;;;;;4.00;3.25;;;;;11.08;54.20;101665.72;5021440;28;45752;-68
2023/05/16 04:50:25;;;;;;;;;14.00;12.25;;;;;11.08;53.90;101667.44;5022407;28;45446;-68
2023/05/16 04:52:50;;;;;;;;;13.50;12.00;;;;;11.08;54.11;101672.72;5022575;28;45382;-67
2023/05/16 04:55:15;;;;;;;;;9.00;4.75;;;;;11.04;54.20;101675.34;5019710;28;45304;-68
2023/05/16 04:57:41;;;;;;;;;7.00;3.00;;;;;11.09;54.06;101679.72;5012225;28;45214;-68
2023/05/16 05:00:09;;;;;;;;;10.25;5.25;;;;;11.08;54.02;101677.97;5021013;28;47177;-68
2023/05/16 05:02:34;;;;;;;;;7.50;4.75;;;;;11.06;54.24;101678.84;5027131;28;45415;-68
2023/05/16 05:04:59;;;;;;;;;5.75;4.00;;;;;10.98;54.11;101667.47;5024435;28;45313;-68
2023/05/16 05:07:27;;;;;;;;;4.75;4.75;;;;;11.08;54.28;101683.22;5022362;28;45284;-68
2023/05/16 05:09:54;;;;;;;;;5.75;4.75;;;;;11.05;54.28;101686.75;5022170;28;46636;-68
2023/05/16 05:12:20;;;;;;;;;5.00;5.00;;;;;11.04;54.16;101685.00;5021805;28;45444;-68
2023/05/16 05:14:45;;;;;;;;;5.50;4.00;;;;;11.03;54.40;101680.59;5022024;28;45186;-68
2023/05/16 05:17:11;;;;;;;;;4.25;4.25;;;;;11.05;54.34;101679.72;5022383;28;45225;-69
2023/05/16 05:19:36;;;;;;;;;8.00;5.00;;;;;11.04;54.31;101682.34;5022048;28;46105;-69
2023/05/16 05:22:01;;;;;;;;;8.75;5.00;;;;;11.09;54.02;101690.25;5020345;28;46070;-69
2023/05/16 05:24:27;;;;;;;;;4.00;4.00;;;;;11.08;54.13;101685.88;5036938;28;45235;-68
2023/05/16 05:26:53;;;;;;;;;5.25;3.25;;;;;11.09;54.43;101687.63;5020485;28;45275;-69
2023/05/16 05:29:19;;;;;;;;;3.00;2.50;;;;;11.04;53.98;101687.63;5020638;28;46959;-69
2023/05/16 05:31:44;;;;;;;;;6.50;3.75;;;;;11.08;54.25;101694.66;5021968;28;45385;-69
2023/05/16 05:34:09;;;;;;;;;4.00;4.00;;;;;11.10;54.14;101707.78;5021770;28;45198;-69
2023/05/16 05:36:35;;;;;;;;;8.00;4.75;;;;;11.02;54.52;101690.25;5020468;28;47840;-69
2023/05/16 05:39:00;;;;;;;;;5.00;4.50;;;;;11.06;54.23;101699.03;5020584;28;47779;-69
2023/05/16 05:41:26;;;;;;;;;5.75;4.00;;;;;11.08;54.26;101693.75;5020824;28;45365;-68
2023/05/16 05:43:51;;;;;;;;;11.00;9.00;;;;;11.12;54.52;101709.53;5021880;28;45265;-69
2023/05/16 05:46:17;;;;;;;;;8.00;6.50;;;;;11.11;54.09;101702.53;5020748;28;45539;-68
2023/05/16 05:48:42;;;;;;;;;4.00;3.00;;;;;11.11;54.31;101699.88;5021922;28;46138;-68
2023/05/16 05:51:07;;;;;;;;;4.00;3.00;;;;;11.15;54.43;101708.66;5021549;28;45307;-69
2023/05/16 05:53:33;;;;;;;;;5.00;4.00;;;;;11.17;54.35;101709.50;5021787;28;45275;-69
2023/05/16 05:55:58;;;;;;;;;5.75;4.25;;;;;11.17;54.18;101707.78;5012681;28;45538;-70
2023/05/16 05:58:24;;;;;;;;;5.00;3.25;;;;;11.20;54.43;101713.03;5017032;28;45383;-70
2023/05/16 06:00:49;;;;;;;;;4.25;3.50;;;;;11.21;54.53;101717.41;5023085;28;45444;-67
2023/05/16 06:03:15;;;;;;;;;5.00;4.75;;;;;11.22;54.32;101718.31;5029920;28;45359;-69
2023/05/16 06:05:40;;;;;;;;;9.00;5.00;;;;;11.23;54.58;101714.78;5021504;28;45298;-68
2023/05/16 06:08:06;;;;;;;;;4.50;3.00;;;;;11.22;54.62;101713.03;5021185;28;45667;-69
2023/05/16 06:10:31;;;;;;;;;5.25;4.00;;;;;11.27;54.43;101721.81;5021322;28;45254;-68
2023/05/16 06:12:56;;;;;;;;;5.00;5.00;;;;;11.24;54.56;101719.16;5021333;28;45304;-71
2023/05/16 06:15:22;;;;;;;;;7.75;5.75;;;;;11.26;54.58;101716.53;5019682;28;45624;-70
2023/05/16 06:17:47;;;;;;;;;4.50;4.00;;;;;11.31;54.67;101717.41;5019932;28;47867;-73
2023/05/16 06:20:13;;;;;;;;;3.75;3.75;;;;;11.34;54.59;101723.53;5019793;28;45400;-74
2023/05/16 06:22:38;;;;;;;;;5.00;4.00;;;;;11.35;54.64;101721.78;5019875;28;45368;-72
2023/05/16 06:25:04;;;;;;;;;4.50;3.50;;;;;11.40;54.42;101721.78;5021221;28;45214;-69
2023/05/16 06:27:29;;;;;;;;;6.75;4.75;;;;;11.41;54.63;101718.25;5019526;28;45268;-73
2023/05/16 06:29:55;;;;;;;;;3.25;3.00;;;;;11.43;54.57;101719.13;5013777;28;45266;-71
2023/05/16 06:32:20;;;;;;;;;4.75;2.75;;;;;11.42;54.50;101717.38;5016546;28;45290;-70
2023/05/16 06:34:47;;;;;;;;;5.75;3.50;;;;;11.44;54.59;101724.38;5021134;28;45336;-69
2023/05/16 06:37:12;;;;;;;;;6.25;4.00;;;;;11.44;54.63;101723.53;5020733;28;45529;-67
2023/05/16 06:39:38;;;;;;;;;3.75;3.25;;;;;11.42;54.58;101715.66;5020898;28;45393;-67
2023/05/16 06:42:03;;;;;;;;;3.75;3.50;;;;;11.49;54.48;101732.28;5019993;28;45339;-67
2023/05/16 06:44:29;;;;;;;;;6.25;3.50;;;;;11.51;54.58;101730.53;5021028;28;45565;-67
2023/05/16 06:46:54;;;;;;;;;3.50;2.75;;;;;11.44;54.54;101724.38;5020508;28;46693;-67
2023/05/16 06:49:19;;;;;;;;;6.50;4.50;;;;;11.57;54.83;101742.78;5019850;28;45454;-67
2023/05/16 06:51:45;;;;;;;;;5.00;3.00;;;;;11.53;54.46;101728.75;5020188;28;45418;-67
2023/05/16 06:54:10;;;;;;;;;5.25;3.25;;;;;11.58;54.72;101731.38;5018815;28;45377;-67
2023/05/16 06:56:35;;;;;;;;;4.25;4.25;;;;;11.60;54.54;101734.91;5020454;28;45405;-67
2023/05/16 06:59:01;;;;;;;;;7.25;3.00;;;;;11.60;54.57;101738.41;5020375;28;45205;-68
2023/05/16 07:01:26;;;;;;;;;4.75;3.00;;;;;11.64;54.56;101737.50;5025031;28;45510;-69
2023/05/16 07:03:52;;;;;;;;;5.25;3.00;;;;;11.67;54.50;101742.78;5019390;28;45645;-67
2023/05/16 07:06:17;;;;;;;;;5.75;3.00;;;;;11.70;54.47;101742.75;5020122;28;45405;-67
2023/05/16 07:08:42;;;;;;;;;5.50;3.75;;;;;11.73;54.41;101744.50;5019074;28;45730;-67
2023/05/16 07:11:10;;;;;;;;;4.50;3.75;;;;;11.76;54.27;101738.34;5020801;28;45166;-67
2023/05/16 07:13:35;;;;;;;;;4.50;3.50;;;;;11.77;54.24;101742.75;5018826;28;45582;-67
2023/05/16 07:16:00;;;;;;;;;4.50;3.00;;;;;11.79;54.12;101743.63;5020360;28;45430;-68
2023/05/16 07:18:26;;;;;;;;;4.00;3.00;;;;;11.82;54.21;101755.03;5020508;28;45245;-67
2023/05/16 07:20:51;;;;;;;;;3.00;2.75;;;;;11.84;54.26;101753.25;5020433;28;45260;-67
2023/05/16 07:23:17;;;;;;;;;6.50;4.00;;;;;11.89;54.10;101757.66;5020229;28;45395;-69
2023/05/16 07:25:42;;;;;;;;;4.00;1.50;;;;;11.90;54.63;101747.09;5020237;28;46266;-67
2023/05/16 07:28:10;;;;;;;;;6.00;3.00;;;;;11.94;54.32;101759.38;5020213;28;45392;-68
2023/05/16 07:30:36;;;;;;;;;8.50;8.50;;;;;11.97;54.88;101753.25;5019372;28;45424;-68
2023/05/16 07:33:01;;;;;;;;;4.50;3.00;;;;;11.91;54.41;101735.69;5018696;28;45436;-67
2023/05/16 07:35:26;;;;;;;;;9.00;5.25;;;;;12.02;54.09;101755.00;5019938;28;46169;-68
2023/05/16 07:37:52;;;;;;;;;5.75;3.00;;;;;12.07;54.44;101759.34;5020004;28;47460;-67
2023/05/16 07:40:19;;;;;;;;;6.50;4.00;;;;;12.10;54.37;101754.94;5018920;28;45405;-67
2023/05/16 07:42:44;;;;;;;;;3.75;3.00;;;;;12.14;54.68;101758.44;5020008;28;45400;-67
2023/05/16 07:45:10;;;;;;;;;2.00;2.00;;;;;12.17;54.18;101754.00;5018108;28;57377;-68
2023/05/16 07:47:35;;;;;;;;;5.00;4.00;;;;;12.19;54.27;101747.00;5018598;28;45263;-67
2023/05/16 07:50:01;;;;;;;;;5.50;3.75;;;;;12.23;54.25;101747.84;5020139;28;45404;-68
2023/05/16 07:52:26;;;;;;;;;3.00;2.00;;;;;12.29;54.21;101747.81;5018266;28;45540;-67
2023/05/16 07:54:51;;;;;;;;;5.00;2.00;;;;;12.32;54.25;101750.44;5019896;28;46202;-68
2023/05/16 07:57:17;;;;;;;;;3.25;1.50;;;;;12.32;54.21;101742.53;5018468;28;45353;-68
2023/05/16 07:59:43;;;;;;;;;2.50;2.25;;;;;12.34;54.10;101743.41;5019856;28;45270;-68
2023/05/16 08:02:09;;;;;;;;;4.25;3.00;;;;;12.44;54.11;101744.22;5031473;28;45466;-69
2023/05/16 08:04:35;;;;;;;;;3.00;0.00;;;;;12.44;54.30;101740.69;5020120;28;46251;-68
2023/05/16 08:07:00;;;;;;;;;4.00;2.00;;;;;12.49;53.92;101744.19;5023147;28;45326;-68
2023/05/16 08:09:26;;;;;;;;;3.00;3.00;;;;;12.52;53.84;101758.22;5023435;28;45269;-68
2023/05/16 08:11:51;;;;;;;;;2.00;2.00;;;;;12.54;54.10;101737.16;5022054;28;45508;-68
2023/05/16 08:14:17;;;;;;;;;5.50;3.50;;;;;12.60;53.64;101737.09;5022906;28;46252;-68
2023/05/16 08:16:43;;;;;;;;;4.00;2.50;;;;;12.63;54.06;101752.91;5023297;28;45166;-68
2023/05/16 08:19:08;;;;;;;;;2.25;2.00;;;;;12.70;53.91;101752.84;5023406;28;45318;-68
2023/05/16 08:21:33;;;;;;;;;3.00;2.00;;;;;12.70;53.81;101748.44;5021752;28;45845;-68
2023/05/16 08:23:59;;;;;;;;;5.00;1.50;;;;;12.78;53.66;101758.94;5023262;28;45509;-68
2023/05/16 08:26:25;;;;;;;;;3.50;2.50;;;;;12.80;53.58;101749.25;5023184;28;45156;-68
2023/05/16 08:28:50;;;;;;;;;2.00;2.00;;;;;12.83;53.60;101755.41;5023153;28;45304;-69
2023/05/16 08:31:16;;;;;;;;;3.00;1.00;;;;;12.88;53.67;101750.09;5022952;28;45539;-68
2023/05/16 08:33:41;;;;;;;;;2.75;2.00;;;;;12.95;53.64;101761.47;5022903;28;45346;-68
2023/05/16 08:36:09;;;;;;;;;3.00;1.75;;;;;13.00;53.57;101762.31;5022746;28;45446;-68
2023/05/16 08:38:34;;;;;;;;;1.25;1.25;;;;;13.06;53.62;101761.38;5022932;28;45336;-68
2023/05/16 08:41:00;;;;;;;;;2.00;2.00;;;;;13.09;53.73;101745.50;5023051;28;45276;-68
2023/05/16 08:43:25;;;;;;;;;2.50;2.00;;;;;13.08;53.54;101743.75;5021403;28;48343;-68
2023/05/16 08:45:50;;;;;;;;;3.50;1.00;;;;;13.20;53.46;101754.22;5023034;28;45178;-68
2023/05/16 08:48:20;;;;;;;;;2.50;2.50;;;;;13.21;53.59;101737.50;5022775;28;45152;-68
2023/05/16 08:50:46;;;;;;;;;8.25;2.50;;;;;13.27;53.48;101753.28;5021334;28;45507;-68
2023/05/16 08:53:15;;;;;;;;;2.00;2.00;;;;;13.33;53.83;101752.31;5022633;28;45460;-68
2023/05/16 08:55:43;;;;;;;;;4.50;3.25;;;;;13.37;53.52;101755.81;5021389;28;45423;-68
2023/05/16 08:58:08;;;;;;;;;2.00;2.00;;;;;13.40;53.52;101755.84;5022639;28;45261;-68
2023/05/16 09:00:34;;;;;;;;;3.25;1.00;;;;;13.51;53.41;101758.34;5030939;28;45238;-69
2023/05/16 09:03:00;;;;;;;;;3.00;2.00;;;;;13.57;53.57;101766.22;5027451;28;45485;-68
2023/05/16 09:05:26;;;;;;;;;3.00;2.00;;;;;13.59;53.51;101762.66;5022510;28;45225;-68
2023/05/16 09:07:52;;;;;;;;;3.25;2.00;;;;;13.66;53.13;101763.50;5021233;28;45405;-69
2023/05/16 09:10:17;;;;;;;;;2.75;1.50;;;;;13.73;53.64;101759.00;5021051;28;45270;-68
2023/05/16 09:12:43;;;;;;;;;2.75;1.75;;;;;13.76;52.92;101758.97;5022086;28;45345;-68
2023/05/16 09:15:10;;;;;;;;;1.00;1.00;;;;;13.85;53.41;101769.44;5021101;28;45388;-69
2023/05/16 09:17:37;;;;;;;;;2.00;2.00;;;;;13.92;53.31;101772.88;5022283;28;45391;-68
2023/05/16 09:20:14;;;;;;;;;1.25;1.25;;;;;13.98;53.06;101760.44;5020820;28;45504;-69
2023/05/16 09:22:50;;;;;;;;;1.25;0.50;;;;;14.06;53.16;101765.69;5020656;28;47180;-68
2023/05/16 09:25:16;;;;;;;;;3.75;3.75;;;;;14.13;52.94;101764.69;5021969;28;45416;-68
2023/05/16 09:27:42;;;;;;;;;3.50;1.25;;;;;14.19;52.78;101766.38;5020700;28;45502;-67
2023/05/16 09:30:13;;;;;;;;;1.75;0.75;;;;;14.27;53.20;101772.44;5022063;28;45444;-67
2023/05/16 09:32:43;;;;;;;;;1.50;1.50;;;;;14.30;53.21;101764.47;5021929;28;45566;-68
2023/05/16 09:35:14;;;;;;;;;1.00;1.00;;;;;14.40;53.32;101773.16;5020489;28;45448;-68
2023/05/16 09:37:46;;;;;;;;;1.25;1.25;;;;;14.46;52.75;101769.53;5022234;28;45326;-68
2023/05/16 09:40:12;;;;;;;;;2.75;1.25;;;;;14.48;52.80;101765.13;5021854;28;45279;-67
2023/05/16 09:42:38;;;;;;;;;4.25;2.50;;;;;14.55;52.67;101761.50;5020372;28;48178;-67
2023/05/16 09:45:04;;;;;;;;;0.50;0.50;;;;;14.63;52.66;101762.25;5021662;28;45238;-68
2023/05/16 09:47:29;;;;;;;;;1.75;1.75;;;;;14.67;52.93;101749.88;5021895;28;45249;-68
2023/05/16 09:49:55;;;;;;;;;5.75;2.50;;;;;14.75;52.37;101752.41;5021869;28;45225;-68
2023/05/16 09:52:21;;;;;;;;;2.75;2.50;;;;;14.83;52.83;101755.81;5021537;28;46097;-68
2023/05/16 09:54:50;;;;;;;;;4.00;2.00;;;;;14.89;52.50;101750.41;5021418;28;45401;-68
2023/05/16 09:57:22;;;;;;;;;1.00;1.00;;;;;14.98;52.35;101751.16;5020483;28;45555;-68
2023/05/16 09:59:49;;;;;;;;;2.00;2.00;;;;;15.09;52.47;101752.75;5023448;28;45426;-68
2023/05/16 10:02:15;;;;;;;;;3.25;1.00;;;;;15.20;52.27;101744.59;5030744;28;46715;-69
2023/05/16 10:04:41;;;;;;;;;1.00;1.00;;;;;15.37;52.37;101754.00;5021328;28;45404;-69
2023/05/16 10:07:08;;;;;;;;;1.00;1.00;;;;;15.50;52.18;101768.78;5021310;28;45254;-68
2023/05/16 10:09:35;;;;;;;;;3.00;1.00;;;;;15.59;52.10;101751.84;5020058;28;45990;-68
2023/05/16 10:12:03;;;;;;;;;1.50;1.00;;;;;15.79;52.55;101756.75;5019939;28;47084;-69
2023/05/16 10:14:32;;;;;;;;;2.00;2.00;;;;;15.93;52.27;101765.31;5019584;28;45423;-68
2023/05/16 10:16:58;;;;;;;;;0.00;0.00;;;;;16.07;51.99;101758.88;5021463;28;45224;-68
2023/05/16 10:19:25;;;;;;;;;1.50;1.00;;;;;16.21;52.18;101763.88;5021077;28;45563;-68
2023/05/16 10:21:58;;;;;;;;;1.00;1.00;;;;;16.35;52.03;101764.47;5020961;28;46167;-68
2023/05/16 10:24:30;;;;;;;;;2.00;1.25;;;;;16.52;51.90;101760.56;5019831;28;45246;-69
2023/05/16 10:26:56;;;;;;;;;1.00;1.00;;;;;16.63;52.10;101747.91;5020969;28;45308;-68
2023/05/16 10:29:22;;;;;;;;;2.50;2.00;;;;;16.79;51.90;101758.16;5019259;28;46043;-68
2023/05/16 10:31:48;;;;;;;;;1.00;1.00;;;;;16.93;51.75;101744.56;5019661;28;46129;-69
2023/05/16 10:34:15;;;;;;;;;2.25;1.75;;;;;17.09;51.67;101755.69;5020819;28;45377;-69
2023/05/16 10:36:41;;;;;;;;;2.75;1.00;;;;;17.27;51.93;101754.34;5021088;28;45289;-69
2023/05/16 10:39:07;;;;;;;;;1.00;0.75;;;;;17.44;51.95;101746.78;5019320;28;45348;-69
2023/05/16 10:41:33;;;;;;;;;2.00;0.75;;;;;17.60;52.03;101757.88;5020656;28;45391;-69
2023/05/16 10:44:00;;;;;;;;;2.00;0.00;;;;;17.77;51.46;101749.41;5020783;28;45448;-68
2023/05/16 10:46:27;;;;;;;;;0.00;0.00;;;;;18.01;51.50;101750.56;5020695;28;45419;-69
2023/05/16 10:48:53;;;;;;;;;2.25;1.00;;;;;18.26;51.88;101756.91;5020665;28;45634;-69
2023/05/16 10:51:21;;;;;;;;;1.50;1.00;;;;;18.49;51.52;101748.25;5020567;28;46197;-70
2023/05/16 10:53:52;;;;;;;;;2.00;1.25;;;;;18.64;51.43;101741.53;5020681;28;45343;-69
2023/05/16 10:56:26;;;;;;;;;2.00;1.00;;;;;18.93;51.61;101742.41;5020583;28;45229;-69
2023/05/16 10:58:54;;;;;;;;;2.00;1.00;;;;;19.14;51.56;101741.69;5008785;28;45255;-67
2023/05/16 11:01:33;;;;;;;;;1.00;1.00;;;;;19.40;51.66;101747.03;5032137;28;47224;-69
2023/05/16 11:03:58;;;;;;;;;0.00;0.00;;;;;19.63;51.67;101746.19;5020440;28;45373;-67
2023/05/16 11:06:48;;;;;;;;;2.00;2.00;;;;;19.81;50.83;101752.69;5018885;28;45293;-67
2023/05/16 11:09:21;;;;;;;;;2.75;1.50;;;;;19.96;51.12;101743.22;5019911;28;45908;-67
2023/05/16 11:11:57;;;;;;;;;1.00;1.00;;;;;20.09;50.73;101747.19;5020256;28;46067;-67
2023/05/16 11:14:25;;;;;;;;;1.00;0.50;;;;;20.18;51.07;101732.63;5020373;28;45274;-69
2023/05/16 11:16:58;;;;;;;;;1.00;1.00;;;;;20.24;50.80;101747.53;5020537;28;45220;-69
2023/05/16 11:19:32;;;;;;;;;3.25;1.00;;;;;20.32;50.87;101748.09;5020308;28;45166;-69
2023/05/16 11:22:09;;;;;;;;;1.00;1.00;;;;;20.33;50.21;101722.28;5018610;28;47131;-69